Aérodrome :
LOGIN :

S'inscrire | Disclaimer

   EN    FR    IT 

 










Légende :    VFR   VFR Marginal   IFR   IFR Intensif   IFR Très Intensif
Visi : 
Plafond : 
>= 8 km
>= 3000ft
5 à 8 km
1000 à 3000 ft
1500m à 5 km
500 à 1000 ft
800 à 1500m
200 à 500 ft
< 800m
< 200 ft
Symboles :   Orages  Brouillard  Fortes neiges  Fortes précipitations  Vent > 20 kt
SIGMETs :   Divers  Orages  Givrage  Turbulence  Onde Orograph.  Cendres Volcan.






- Altitude de l'aérodrome : 0 ft


ETEB - Ansbach Army Heliport

DERNIER METAR :
  • 232156Z AUTO 00000KT 0400 FG CLR 01/01 A3041 RMK AO2 UPB17E28 SLP333 P0000 T00060006 RVRNO $

METARs EXPIRÉS :
  • 232128Z AUTO 00000KT 0400 FG SCT000 01/01 A3041 RMK AO2 UPB17E28 SLP333 RVRNO $
  • 232119Z AUTO 00000KT 0400 -UP FG SCT000 02/02 A3041 RMK AO2 UPB17 SLP333 RVRNO $
  • 232056Z AUTO 18003KT 0800 FG CLR 01/01 A3041 RMK AO2 VIS 0800V1600 UPB22E32 SLP333 P0000 60000 T00130013 50001 RVRNO $
  • 232022Z AUTO 00000KT 0400 -UP FG BKN000 02/02 A3040 RMK AO2 UPB22 BKN V FEW SLP329 RVRNO $
  • 231956Z AUTO 00000KT 1200 BR CLR 03/03 A3041 RMK AO2 VIS 1200V8000 SLP330 T00260026 RVRNO $

TAF AMD TAF ETEB
Valide du 23 à 20h jusqu'au 24 à 23h UTC


232040Z 2320/2423 VRB06KT 0400 FG BKN003 QNH3039INS
BECMG 2410/2411 15009KT 9999 NSW BKN020 QNH3024INS TX06/2413Z TN03/2321Z LAST NO AMDS AFT 2322 NEXT 2409



MET'MAP, la Météo Aéronautique d'un coup d'oeil ! - Copyright ORBIFLY Décembre 2007 - Disclaimer

ORBIFLY MET'MAP TEAM :

Programmation & Développement : Alexandra Zaïnal
Sur une idée originale de : Baudouin d'Aumeries
Assistance à la programmation : Marc-Olivier Méhu
Soutien technique & logistique : Manuel Goepfert

Contact : metmap@orbifly.com




SOURCES & CREDITS :

   NOAA